Time;durP1;ratioP1;P1;durP2;ratioP2;P2;SDS_P1;SDS_P2;PMS_P1;PMS_P2;Temp;Humidity;BMP_temperature;BMP_pressure;BME280_temperature;BME280_humidity;BME280_pressure;Samples;Min_cycle;Max_cycle;Signal;HPM_P1;HPM_P2
2020/12/19 00:00:36;;;;;;;479.53;223.70;;;;;;;;;;4381117;32;20244;-58
2020/12/19 00:03:02;;;;;;;466.60;220.63;;;;;;;;;;4363030;32;20293;-60
2020/12/19 00:05:27;;;;;;;435.77;204.20;;;;;;;;;;4369099;32;20536;-61
2020/12/19 00:07:53;;;;;;;425.23;202.30;;;;;;;;;;4383324;32;20257;-63
2020/12/19 00:10:18;;;;;;;432.43;197.27;;;;;;;;;;4375051;32;20702;-61
2020/12/19 00:12:45;;;;;;;422.07;184.63;;;;;;;;;;4373059;32;20304;-62
2020/12/19 00:15:15;;;;;;;342.80;172.30;;;;;;;;;;4369340;32;20585;-62
2020/12/19 00:17:41;;;;;;;288.43;137.10;;;;;;;;;;4379225;32;20264;-62
2020/12/19 00:20:07;;;;;;;315.73;142.77;;;;;;;;;;4376549;32;20762;-62
2020/12/19 00:22:32;;;;;;;360.70;160.40;;;;;;;;;;4382908;32;20355;-61
2020/12/19 00:24:58;;;;;;;356.47;157.50;;;;;;;;;;4382163;32;20527;-61
2020/12/19 00:27:23;;;;;;;344.67;153.30;;;;;;;;;;4369466;32;20237;-61
2020/12/19 00:29:49;;;;;;;376.50;166.63;;;;;;;;;;4385754;32;20205;-61
2020/12/19 00:32:14;;;;;;;431.37;178.60;;;;;;;;;;4377364;32;20245;-62
2020/12/19 00:34:40;;;;;;;325.17;148.33;;;;;;;;;;4379243;32;20240;-61
2020/12/19 00:37:05;;;;;;;321.67;142.27;;;;;;;;;;4377961;32;20267;-61
2020/12/19 00:39:31;;;;;;;301.93;131.27;;;;;;;;;;4384342;32;20236;-61
2020/12/19 00:41:56;;;;;;;271.13;123.43;;;;;;;;;;4387049;32;20400;-61
2020/12/19 00:44:21;;;;;;;260.30;118.47;;;;;;;;;;4384270;32;20229;-61
2020/12/19 00:46:51;;;;;;;178.00;95.47;;;;;;;;;;4383268;32;20297;-61
2020/12/19 00:49:17;;;;;;;227.37;89.57;;;;;;;;;;4381864;32;20665;-61
2020/12/19 00:51:42;;;;;;;174.67;86.83;;;;;;;;;;4386974;32;20194;-61
2020/12/19 00:54:08;;;;;;;176.10;87.37;;;;;;;;;;4388129;32;20276;-60
2020/12/19 00:56:33;;;;;;;314.57;103.90;;;;;;;;;;4388120;32;20213;-61
2020/12/19 00:58:59;;;;;;;205.37;97.23;;;;;;;;;;4385367;32;20194;-61
2020/12/19 01:01:25;;;;;;;254.40;96.93;;;;;;;;;;4388336;32;20222;-61
2020/12/19 01:03:56;;;;;;;192.40;92.33;;;;;;;;;;4379600;32;20197;-61
2020/12/19 01:06:23;;;;;;;326.83;96.07;;;;;;;;;;4387968;32;20320;-61
2020/12/19 01:08:51;;;;;;;190.90;88.77;;;;;;;;;;4388258;32;20198;-61
2020/12/19 01:11:17;;;;;;;187.87;90.20;;;;;;;;;;4380724;32;20383;-61
2020/12/19 01:13:43;;;;;;;191.40;90.90;;;;;;;;;;4385202;32;20336;-61
2020/12/19 01:16:12;;;;;;;167.27;88.50;;;;;;;;;;4387599;32;20306;-60
2020/12/19 01:18:38;;;;;;;322.00;100.17;;;;;;;;;;4380428;32;20357;-60
2020/12/19 01:21:03;;;;;;;280.93;101.27;;;;;;;;;;4383353;32;20248;-60
2020/12/19 01:23:29;;;;;;;223.87;98.13;;;;;;;;;;4382487;32;20402;-59
2020/12/19 01:25:54;;;;;;;268.90;105.90;;;;;;;;;;4386023;32;20225;-58
2020/12/19 01:28:19;;;;;;;215.27;106.53;;;;;;;;;;4385163;32;20254;-58
2020/12/19 01:30:45;;;;;;;253.13;105.90;;;;;;;;;;4383499;32;20234;-58
2020/12/19 01:33:10;;;;;;;227.90;105.90;;;;;;;;;;4383219;32;20303;-60
2020/12/19 01:35:36;;;;;;;235.63;105.20;;;;;;;;;;4384221;32;20260;-60
2020/12/19 01:38:01;;;;;;;227.33;103.97;;;;;;;;;;4385643;32;20256;-61
2020/12/19 01:40:27;;;;;;;217.70;105.10;;;;;;;;;;4385051;32;20340;-62
2020/12/19 01:42:52;;;;;;;235.77;99.97;;;;;;;;;;4385382;32;20419;-61
2020/12/19 01:45:17;;;;;;;235.27;100.50;;;;;;;;;;4385298;32;20395;-61
2020/12/19 01:47:43;;;;;;;261.10;108.53;;;;;;;;;;4384530;32;20352;-61
2020/12/19 01:50:10;;;;;;;238.00;102.80;;;;;;;;;;4385678;32;20289;-61
2020/12/19 01:52:36;;;;;;;231.53;100.83;;;;;;;;;;4386322;32;20344;-61
2020/12/19 01:55:03;;;;;;;249.93;103.37;;;;;;;;;;4386768;32;20210;-61
2020/12/19 01:57:32;;;;;;;225.40;99.67;;;;;;;;;;4387153;32;20280;-61
2020/12/19 01:59:59;;;;;;;235.77;102.57;;;;;;;;;;4379213;32;20346;-63
2020/12/19 02:02:26;;;;;;;256.33;100.23;;;;;;;;;;4385949;32;20539;-61
2020/12/19 02:04:53;;;;;;;257.17;105.80;;;;;;;;;;4381324;32;20272;-61
2020/12/19 02:07:19;;;;;;;281.33;108.70;;;;;;;;;;4385061;32;20268;-61
2020/12/19 02:09:44;;;;;;;284.70;106.87;;;;;;;;;;4375107;32;20244;-61
2020/12/19 02:12:10;;;;;;;236.20;102.97;;;;;;;;;;4385340;32;20217;-61
2020/12/19 02:14:37;;;;;;;279.53;109.63;;;;;;;;;;4371563;32;20230;-61
2020/12/19 02:17:08;;;;;;;258.87;104.80;;;;;;;;;;4383990;32;20236;-61
2020/12/19 02:19:34;;;;;;;264.00;105.83;;;;;;;;;;4380001;32;20436;-61
2020/12/19 02:22:01;;;;;;;276.90;110.90;;;;;;;;;;4380754;32;20827;-60
2020/12/19 02:24:27;;;;;;;257.80;111.43;;;;;;;;;;4380119;32;20315;-61
2020/12/19 02:26:56;;;;;;;258.60;107.53;;;;;;;;;;4381581;32;20214;-61
2020/12/19 02:29:23;;;;;;;235.13;99.57;;;;;;;;;;4379089;32;20296;-60
2020/12/19 02:31:49;;;;;;;321.10;108.40;;;;;;;;;;4372364;32;20308;-62
2020/12/19 02:34:15;;;;;;;225.63;97.83;;;;;;;;;;4370849;32;20315;-60
2020/12/19 02:36:41;;;;;;;229.00;96.33;;;;;;;;;;4383470;32;20244;-60
2020/12/19 02:39:08;;;;;;;166.77;72.60;;;;;;;;;;4385591;32;20307;-60
2020/12/19 02:41:41;;;;;;;228.43;76.10;;;;;;;;;;4384154;32;20243;-61
2020/12/19 02:44:10;;;;;;;333.83;84.20;;;;;;;;;;4385032;32;20295;-61
2020/12/19 02:46:35;;;;;;;213.17;81.07;;;;;;;;;;4384452;32;20622;-61
2020/12/19 02:49:02;;;;;;;259.00;81.73;;;;;;;;;;4384861;32;20203;-62
2020/12/19 02:51:27;;;;;;;204.70;79.73;;;;;;;;;;4384539;32;20459;-63
2020/12/19 02:53:53;;;;;;;193.30;75.83;;;;;;;;;;4384391;32;20222;-61
2020/12/19 02:56:18;;;;;;;202.60;81.13;;;;;;;;;;4373383;32;20241;-61
2020/12/19 02:58:44;;;;;;;200.20;77.07;;;;;;;;;;4386665;32;20285;-63
2020/12/19 03:01:09;;;;;;;167.17;72.20;;;;;;;;;;4378575;32;20296;-61
2020/12/19 03:03:35;;;;;;;241.17;73.37;;;;;;;;;;4373208;32;20245;-61
2020/12/19 03:06:00;;;;;;;167.70;76.23;;;;;;;;;;4371894;32;20554;-61
2020/12/19 03:08:26;;;;;;;160.13;72.40;;;;;;;;;;4384276;32;20400;-62
2020/12/19 03:10:51;;;;;;;149.60;68.57;;;;;;;;;;4384696;32;20719;-63
2020/12/19 03:13:17;;;;;;;142.63;67.50;;;;;;;;;;4386449;32;20243;-62
2020/12/19 03:15:42;;;;;;;146.83;70.53;;;;;;;;;;4382961;32;20523;-60
2020/12/19 03:18:08;;;;;;;173.97;78.00;;;;;;;;;;4385803;32;20280;-61
2020/12/19 03:20:33;;;;;;;152.67;68.13;;;;;;;;;;4379745;32;20590;-61
2020/12/19 03:22:59;;;;;;;146.13;68.70;;;;;;;;;;4385439;32;20270;-60
2020/12/19 03:25:27;;;;;;;145.20;69.87;;;;;;;;;;4381786;32;20275;-59
2020/12/19 03:27:54;;;;;;;147.03;67.77;;;;;;;;;;4385385;32;20310;-59
2020/12/19 03:30:23;;;;;;;210.00;74.50;;;;;;;;;;4382290;32;20416;-58
2020/12/19 03:32:51;;;;;;;157.30;67.13;;;;;;;;;;4384703;32;20214;-58
2020/12/19 03:35:16;;;;;;;195.37;72.80;;;;;;;;;;4381347;32;20493;-58
2020/12/19 03:37:41;;;;;;;158.43;66.53;;;;;;;;;;4384686;32;20275;-58
2020/12/19 03:40:07;;;;;;;142.73;68.90;;;;;;;;;;4383959;32;20234;-58
2020/12/19 03:42:32;;;;;;;141.00;68.73;;;;;;;;;;4385160;32;20671;-59
2020/12/19 03:44:58;;;;;;;126.33;63.40;;;;;;;;;;4386331;32;20723;-58
2020/12/19 03:47:23;;;;;;;127.07;61.50;;;;;;;;;;4372759;32;20252;-58
2020/12/19 03:49:49;;;;;;;153.77;63.37;;;;;;;;;;4372426;32;20259;-58
2020/12/19 03:52:14;;;;;;;143.33;63.67;;;;;;;;;;4385746;32;20241;-58
2020/12/19 03:54:40;;;;;;;160.33;66.07;;;;;;;;;;4385167;32;20639;-58
2020/12/19 03:57:05;;;;;;;179.73;69.80;;;;;;;;;;4386571;32;20380;-58
2020/12/19 03:59:31;;;;;;;129.23;61.27;;;;;;;;;;4377477;32;20209;-58
2020/12/19 04:01:56;;;;;;;146.87;67.63;;;;;;;;;;4384320;32;20300;-58
2020/12/19 04:04:21;;;;;;;108.20;55.37;;;;;;;;;;4386158;32;20253;-58
2020/12/19 04:06:47;;;;;;;123.40;50.50;;;;;;;;;;4388021;32;20248;-58
2020/12/19 04:09:12;;;;;;;88.90;48.37;;;;;;;;;;4388212;32;20359;-58
2020/12/19 04:11:38;;;;;;;111.80;50.60;;;;;;;;;;4388633;32;20340;-58
2020/12/19 04:14:03;;;;;;;152.47;50.60;;;;;;;;;;4374661;32;20629;-61
2020/12/19 04:16:29;;;;;;;108.47;51.93;;;;;;;;;;4371815;32;20607;-61
2020/12/19 04:18:54;;;;;;;174.10;51.80;;;;;;;;;;4382893;32;20296;-61
2020/12/19 04:21:19;;;;;;;143.00;50.77;;;;;;;;;;4388678;32;20268;-61
2020/12/19 04:23:45;;;;;;;199.57;48.87;;;;;;;;;;4382964;32;20342;-61
2020/12/19 04:26:10;;;;;;;107.00;47.10;;;;;;;;;;4387448;32;20268;-62
2020/12/19 04:28:36;;;;;;;113.50;50.10;;;;;;;;;;4388071;32;20343;-62
2020/12/19 04:31:01;;;;;;;101.57;50.77;;;;;;;;;;4375405;32;20268;-62
2020/12/19 04:33:26;;;;;;;104.97;47.87;;;;;;;;;;4384613;32;20371;-61
2020/12/19 04:35:52;;;;;;;115.70;47.47;;;;;;;;;;4387631;32;20259;-62
2020/12/19 04:38:17;;;;;;;123.77;53.47;;;;;;;;;;4384576;32;20667;-66
2020/12/19 04:40:44;;;;;;;149.57;50.47;;;;;;;;;;4388383;32;20637;-66
2020/12/19 04:43:17;;;;;;;121.70;45.00;;;;;;;;;;4385941;32;20268;-65
2020/12/19 04:45:48;;;;;;;91.73;38.77;;;;;;;;;;4379751;32;20214;-64
2020/12/19 04:48:24;;;;;;;70.80;33.80;;;;;;;;;;4387002;32;20264;-62
2020/12/19 04:50:50;;;;;;;122.13;41.83;;;;;;;;;;4383876;32;20270;-61
2020/12/19 04:53:18;;;;;;;117.17;38.17;;;;;;;;;;4388470;32;20202;-60
2020/12/19 04:55:45;;;;;;;85.10;34.80;;;;;;;;;;4387903;32;20244;-59
2020/12/19 04:58:13;;;;;;;95.83;37.07;;;;;;;;;;4388403;32;20280;-59
2020/12/19 05:00:40;;;;;;;89.77;38.83;;;;;;;;;;4388163;32;20343;-60
2020/12/19 05:03:05;;;;;;;119.97;38.93;;;;;;;;;;4383101;32;20312;-60
2020/12/19 05:05:33;;;;;;;62.33;36.37;;;;;;;;;;4386257;32;20226;-62
2020/12/19 05:07:58;;;;;;;126.07;38.13;;;;;;;;;;4383143;32;20193;-61
2020/12/19 05:10:24;;;;;;;99.33;40.63;;;;;;;;;;4386166;32;20267;-62
2020/12/19 05:12:54;;;;;;;95.67;40.20;;;;;;;;;;4383348;32;20238;-60
2020/12/19 05:15:19;;;;;;;74.60;39.63;;;;;;;;;;4385449;32;20210;-60
2020/12/19 05:17:56;;;;;;;81.70;40.00;;;;;;;;;;4384292;32;20719;-60
2020/12/19 05:20:23;;;;;;;93.93;42.90;;;;;;;;;;4385826;32;20248;-59
2020/12/19 05:22:50;;;;;;;95.47;46.13;;;;;;;;;;4384060;32;20233;-59
2020/12/19 05:25:17;;;;;;;100.83;45.30;;;;;;;;;;4385887;32;20304;-60
2020/12/19 05:27:44;;;;;;;100.17;45.77;;;;;;;;;;4384353;32;20278;-60
2020/12/19 05:30:10;;;;;;;93.23;44.83;;;;;;;;;;4385628;32;20308;-60
2020/12/19 05:32:38;;;;;;;91.53;45.60;;;;;;;;;;4384906;32;20289;-61
2020/12/19 05:35:07;;;;;;;106.20;47.33;;;;;;;;;;4386229;32;20319;-61
2020/12/19 05:37:32;;;;;;;86.30;46.73;;;;;;;;;;4385471;32;20593;-60
2020/12/19 05:39:57;;;;;;;100.43;47.53;;;;;;;;;;4387344;32;20218;-60
2020/12/19 05:42:23;;;;;;;105.17;48.73;;;;;;;;;;4386192;32;20214;-60
2020/12/19 05:44:49;;;;;;;104.47;56.20;;;;;;;;;;4386350;32;20209;-60
2020/12/19 05:47:16;;;;;;;117.90;52.13;;;;;;;;;;4386664;32;20224;-60
2020/12/19 05:49:43;;;;;;;87.40;42.37;;;;;;;;;;4386577;32;20293;-60
2020/12/19 05:52:09;;;;;;;107.10;47.83;;;;;;;;;;4387279;32;20768;-60
2020/12/19 05:54:39;;;;;;;110.73;46.23;;;;;;;;;;4386354;32;20329;-60
2020/12/19 05:57:08;;;;;;;97.63;47.37;;;;;;;;;;4387147;32;20273;-61
2020/12/19 05:59:34;;;;;;;88.60;45.07;;;;;;;;;;4384735;32;20225;-60
2020/12/19 06:02:01;;;;;;;144.77;61.07;;;;;;;;;;4386941;32;20201;-60
2020/12/19 06:04:28;;;;;;;182.23;75.27;;;;;;;;;;4386519;32;20725;-60
2020/12/19 06:06:55;;;;;;;119.40;57.03;;;;;;;;;;4387049;32;20217;-60
2020/12/19 06:09:21;;;;;;;95.50;48.33;;;;;;;;;;4386422;32;20218;-60
2020/12/19 06:11:54;;;;;;;95.30;46.97;;;;;;;;;;4386763;32;20277;-60
2020/12/19 06:14:25;;;;;;;100.17;47.53;;;;;;;;;;4386244;32;20198;-61
2020/12/19 06:16:54;;;;;;;120.57;60.00;;;;;;;;;;4383786;32;20263;-60
2020/12/19 06:19:20;;;;;;;133.53;60.33;;;;;;;;;;4383729;32;20595;-61
2020/12/19 06:21:54;;;;;;;129.43;63.33;;;;;;;;;;4385979;32;20339;-60
2020/12/19 06:24:45;;;;;;;156.90;82.73;;;;;;;;;;4381571;32;20228;-62
2020/12/19 06:27:27;;;;;;;153.60;73.73;;;;;;;;;;4385926;32;20732;-61
2020/12/19 06:29:53;;;;;;;159.70;61.57;;;;;;;;;;4372931;32;20289;-61
2020/12/19 06:32:23;;;;;;;118.37;55.27;;;;;;;;;;4385996;32;20389;-62
2020/12/19 06:35:10;;;;;;;116.30;53.83;;;;;;;;;;4384435;32;20371;-60
2020/12/19 06:37:40;;;;;;;112.93;57.83;;;;;;;;;;4383358;32;20332;-60
2020/12/19 06:40:12;;;;;;;111.97;56.87;;;;;;;;;;4386909;32;20230;-59
2020/12/19 06:42:38;;;;;;;129.70;63.37;;;;;;;;;;4384905;32;20612;-60
2020/12/19 06:45:20;;;;;;;122.23;58.00;;;;;;;;;;4386328;32;20248;-60
2020/12/19 06:47:45;;;;;;;131.30;61.27;;;;;;;;;;4384960;32;20415;-58
2020/12/19 06:50:10;;;;;;;135.23;64.90;;;;;;;;;;4386469;32;20359;-60
2020/12/19 06:52:36;;;;;;;136.10;67.80;;;;;;;;;;4385688;32;20431;-60
2020/12/19 06:55:18;;;;;;;133.00;63.13;;;;;;;;;;4386105;32;20244;-61
2020/12/19 06:57:50;;;;;;;128.93;60.50;;;;;;;;;;4386497;32;20260;-62
2020/12/19 07:00:44;;;;;;;131.60;59.03;;;;;;;;;;4381666;32;20603;-62
2020/12/19 07:03:10;;;;;;;127.07;61.87;;;;;;;;;;4381781;32;20335;-62
2020/12/19 07:05:35;;;;;;;161.07;77.90;;;;;;;;;;4386903;32;20321;-61
2020/12/19 07:08:18;;;;;;;134.67;62.23;;;;;;;;;;4384531;32;20252;-62
2020/12/19 07:10:45;;;;;;;180.00;88.53;;;;;;;;;;4385847;32;20256;-62
2020/12/19 07:13:11;;;;;;;190.57;91.80;;;;;;;;;;4384979;32;20378;-63
2020/12/19 07:15:51;;;;;;;124.37;58.70;;;;;;;;;;4386157;32;20275;-62
2020/12/19 07:18:30;;;;;;;123.03;60.93;;;;;;;;;;4383690;32;20678;-62
2020/12/19 07:21:09;;;;;;;106.77;53.73;;;;;;;;;;4357064;32;20214;-60
2020/12/19 07:23:39;;;;;;;121.57;53.77;;;;;;;;;;4355599;32;20278;-59
2020/12/19 07:26:06;;;;;;;113.93;54.00;;;;;;;;;;4356986;32;20245;-61
2020/12/19 07:28:32;;;;;;;117.73;53.90;;;;;;;;;;4355943;32;20198;-59
2020/12/19 07:30:57;;;;;;;169.87;63.30;;;;;;;;;;4356927;32;20583;-61
2020/12/19 07:33:23;;;;;;;134.80;60.10;;;;;;;;;;4356004;32;20233;-62
2020/12/19 07:35:49;;;;;;;130.73;61.93;;;;;;;;;;4356917;32;20216;-60
2020/12/19 07:38:15;;;;;;;125.93;57.40;;;;;;;;;;4356369;32;20308;-59
2020/12/19 07:40:41;;;;;;;128.83;61.10;;;;;;;;;;4357040;32;20246;-58
2020/12/19 07:43:08;;;;;;;132.33;62.60;;;;;;;;;;4359353;32;20309;-58
2020/12/19 07:45:35;;;;;;;170.43;70.00;;;;;;;;;;4360311;32;20868;-58
2020/12/19 07:48:00;;;;;;;154.23;69.90;;;;;;;;;;4358783;32;20240;-60
2020/12/19 07:50:32;;;;;;;141.70;61.33;;;;;;;;;;4353524;32;20580;-60
2020/12/19 07:53:06;;;;;;;152.93;58.50;;;;;;;;;;4359452;32;20202;-60
2020/12/19 07:55:33;;;;;;;128.40;58.87;;;;;;;;;;4359402;32;20222;-60
2020/12/19 07:58:07;;;;;;;153.97;65.47;;;;;;;;;;4353215;32;20591;-60
2020/12/19 08:00:33;;;;;;;156.80;72.70;;;;;;;;;;4353679;32;20213;-61
2020/12/19 08:02:58;;;;;;;150.77;66.13;;;;;;;;;;4355585;32;20699;-62
2020/12/19 08:05:24;;;;;;;123.20;64.17;;;;;;;;;;4354362;32;20210;-61
2020/12/19 08:07:54;;;;;;;144.37;63.07;;;;;;;;;;4353305;32;20313;-61
2020/12/19 08:10:21;;;;;;;148.63;63.17;;;;;;;;;;4351336;32;20352;-60
2020/12/19 08:12:47;;;;;;;142.13;63.33;;;;;;;;;;4354578;32;20396;-58
2020/12/19 08:15:19;;;;;;;141.03;64.33;;;;;;;;;;4357851;32;20261;-58
2020/12/19 08:17:46;;;;;;;139.97;63.53;;;;;;;;;;4353310;32;20332;-58
2020/12/19 08:20:12;;;;;;;136.27;64.57;;;;;;;;;;4379480;32;20230;-59
2020/12/19 08:22:40;;;;;;;144.40;65.97;;;;;;;;;;4381171;32;20242;-59
2020/12/19 08:25:06;;;;;;;129.53;65.73;;;;;;;;;;4381854;32;20222;-61
2020/12/19 08:27:40;;;;;;;159.17;72.47;;;;;;;;;;4381985;32;20229;-60
2020/12/19 08:30:13;;;;;;;144.07;65.87;;;;;;;;;;4384091;32;20244;-62
2020/12/19 08:32:43;;;;;;;133.73;65.20;;;;;;;;;;4380994;32;20370;-62
2020/12/19 08:35:10;;;;;;;137.70;69.00;;;;;;;;;;4379494;32;20291;-61
2020/12/19 08:37:36;;;;;;;142.97;64.40;;;;;;;;;;4382058;32;20230;-60
2020/12/19 08:40:11;;;;;;;130.30;58.70;;;;;;;;;;4381383;32;20229;-60
2020/12/19 08:42:38;;;;;;;143.60;59.50;;;;;;;;;;4377356;32;20256;-60
2020/12/19 08:45:28;;;;;;;269.13;140.27;;;;;;;;;;4382781;32;20353;-61
2020/12/19 08:47:57;;;;;;;164.70;77.97;;;;;;;;;;4381073;32;20229;-59
2020/12/19 08:50:24;;;;;;;334.47;137.87;;;;;;;;;;4381146;32;20222;-60
2020/12/19 08:53:13;;;;;;;140.43;72.60;;;;;;;;;;4386369;32;20316;-60
2020/12/19 08:55:39;;;;;;;156.30;78.10;;;;;;;;;;4381688;32;20253;-60
2020/12/19 08:58:05;;;;;;;138.77;73.50;;;;;;;;;;4384207;32;20570;-59
2020/12/19 09:00:33;;;;;;;142.10;74.03;;;;;;;;;;4387992;32;20214;-59
2020/12/19 09:03:02;;;;;;;144.90;74.77;;;;;;;;;;4388241;32;20220;-60
2020/12/19 09:05:36;;;;;;;139.33;69.83;;;;;;;;;;4388437;32;20340;-61
2020/12/19 09:08:03;;;;;;;142.47;74.03;;;;;;;;;;4385357;32;20654;-60
2020/12/19 09:10:30;;;;;;;130.50;66.80;;;;;;;;;;4374999;32;20252;-60
2020/12/19 09:13:19;;;;;;;118.67;61.93;;;;;;;;;;4381248;32;20291;-62
2020/12/19 09:15:46;;;;;;;118.63;61.60;;;;;;;;;;4373460;32;20241;-59
2020/12/19 09:18:19;;;;;;;108.20;58.00;;;;;;;;;;4387122;32;20226;-59
2020/12/19 09:20:46;;;;;;;99.40;51.03;;;;;;;;;;4388271;32;20321;-59
2020/12/19 09:23:11;;;;;;;111.30;57.27;;;;;;;;;;4384652;32;20232;-59
2020/12/19 09:25:38;;;;;;;93.73;51.93;;;;;;;;;;4374648;32;20249;-59
2020/12/19 09:28:03;;;;;;;104.53;54.30;;;;;;;;;;4388779;32;20214;-59
2020/12/19 09:30:29;;;;;;;111.63;60.63;;;;;;;;;;4388305;32;20295;-59
2020/12/19 09:32:57;;;;;;;116.40;67.93;;;;;;;;;;4387758;32;20236;-62
2020/12/19 09:35:24;;;;;;;97.90;55.90;;;;;;;;;;4387975;32;20647;-63
2020/12/19 09:37:50;;;;;;;101.10;54.83;;;;;;;;;;4388104;32;20344;-61
2020/12/19 09:40:15;;;;;;;110.23;59.57;;;;;;;;;;4362671;32;20245;-59
2020/12/19 09:42:40;;;;;;;88.17;51.37;;;;;;;;;;4366805;32;20730;-59
2020/12/19 09:45:06;;;;;;;83.60;49.53;;;;;;;;;;4368938;32;20289;-59
2020/12/19 09:47:31;;;;;;;105.00;62.20;;;;;;;;;;4382694;32;20827;-61
2020/12/19 09:49:57;;;;;;;85.33;52.30;;;;;;;;;;4381314;32;20436;-58
2020/12/19 09:52:22;;;;;;;62.73;38.23;;;;;;;;;;4377604;32;20284;-59
2020/12/19 09:54:48;;;;;;;66.53;38.33;;;;;;;;;;4385706;32;20215;-58
2020/12/19 09:57:13;;;;;;;60.67;37.03;;;;;;;;;;4380508;32;20613;-58
2020/12/19 09:59:39;;;;;;;92.10;51.93;;;;;;;;;;4364053;32;20386;-59
2020/12/19 10:02:04;;;;;;;88.90;48.97;;;;;;;;;;4376973;32;20760;-58
2020/12/19 10:04:29;;;;;;;74.70;44.93;;;;;;;;;;4380512;32;20269;-58
2020/12/19 10:06:55;;;;;;;89.60;52.83;;;;;;;;;;4375581;32;20320;-58
2020/12/19 10:09:20;;;;;;;88.30;55.30;;;;;;;;;;4379453;32;20609;-57
2020/12/19 10:11:46;;;;;;;86.20;51.00;;;;;;;;;;4385947;32;20248;-57
2020/12/19 10:14:11;;;;;;;98.33;58.13;;;;;;;;;;4378887;32;20303;-59
2020/12/19 10:16:36;;;;;;;82.33;48.13;;;;;;;;;;4378053;32;20764;-59
2020/12/19 10:19:02;;;;;;;86.13;51.20;;;;;;;;;;4378204;32;20252;-58
2020/12/19 10:21:27;;;;;;;82.40;48.97;;;;;;;;;;4379662;32;20396;-60
2020/12/19 10:23:53;;;;;;;69.60;42.93;;;;;;;;;;4374009;32;20292;-57
2020/12/19 10:26:20;;;;;;;76.87;47.30;;;;;;;;;;4385597;32;20276;-58
2020/12/19 10:28:45;;;;;;;95.80;51.57;;;;;;;;;;4383134;32;20242;-58
2020/12/19 10:31:11;;;;;;;90.57;52.23;;;;;;;;;;4386930;32;20252;-58
2020/12/19 10:33:36;;;;;;;94.93;56.17;;;;;;;;;;4379393;32;20348;-58
2020/12/19 10:36:01;;;;;;;114.80;65.53;;;;;;;;;;4380235;32;20536;-59
2020/12/19 10:38:27;;;;;;;139.93;73.93;;;;;;;;;;4377788;32;20322;-57
2020/12/19 10:40:52;;;;;;;112.20;66.17;;;;;;;;;;4386743;32;20214;-58
2020/12/19 10:43:18;;;;;;;92.60;54.43;;;;;;;;;;4386008;32;20238;-58
2020/12/19 10:45:45;;;;;;;92.83;53.63;;;;;;;;;;4385839;32;20214;-59
2020/12/19 10:48:10;;;;;;;115.27;62.23;;;;;;;;;;4384695;32;20202;-58
2020/12/19 10:50:36;;;;;;;117.83;62.33;;;;;;;;;;4386964;32;20320;-59
2020/12/19 10:53:01;;;;;;;110.63;62.60;;;;;;;;;;4375587;32;20279;-59
2020/12/19 10:55:27;;;;;;;103.27;65.13;;;;;;;;;;4380471;32;20393;-59
2020/12/19 10:57:52;;;;;;;127.97;68.40;;;;;;;;;;4380446;32;20308;-58
2020/12/19 11:00:18;;;;;;;126.90;66.63;;;;;;;;;;4386160;32;20871;-58
2020/12/19 11:02:45;;;;;;;117.10;68.33;;;;;;;;;;4384199;32;20584;-59
2020/12/19 11:05:10;;;;;;;135.37;71.30;;;;;;;;;;4384354;32;20375;-59
2020/12/19 11:07:35;;;;;;;138.47;74.80;;;;;;;;;;4378813;32;20664;-59
2020/12/19 11:10:01;;;;;;;133.80;72.77;;;;;;;;;;4386046;32;20234;-60
2020/12/19 11:12:26;;;;;;;123.20;67.83;;;;;;;;;;4373709;32;20620;-62
2020/12/19 11:14:52;;;;;;;122.80;70.23;;;;;;;;;;4363771;32;20577;-62
2020/12/19 11:17:17;;;;;;;123.23;67.77;;;;;;;;;;4382717;32;20237;-63
2020/12/19 11:19:43;;;;;;;123.17;68.10;;;;;;;;;;4382525;32;20735;-62
2020/12/19 11:22:08;;;;;;;130.10;67.23;;;;;;;;;;4378757;32;20706;-62
2020/12/19 11:24:33;;;;;;;125.00;67.17;;;;;;;;;;4376865;32;20698;-62
2020/12/19 11:26:59;;;;;;;146.13;75.53;;;;;;;;;;4381226;32;20214;-62
2020/12/19 11:29:25;;;;;;;132.27;72.00;;;;;;;;;;4379621;32;20477;-62
2020/12/19 11:31:50;;;;;;;132.67;72.73;;;;;;;;;;4380741;32;20228;-62
2020/12/19 11:34:16;;;;;;;138.87;73.27;;;;;;;;;;4384778;32;20364;-63
2020/12/19 11:36:41;;;;;;;141.40;74.60;;;;;;;;;;4376490;32;20303;-62
2020/12/19 11:39:12;;;;;;;154.03;81.57;;;;;;;;;;4382216;32;20308;-62
2020/12/19 11:41:39;;;;;;;185.73;95.83;;;;;;;;;;4379285;32;20288;-62
2020/12/19 11:44:05;;;;;;;149.67;79.27;;;;;;;;;;4383300;32;20241;-62
2020/12/19 11:46:30;;;;;;;171.73;89.63;;;;;;;;;;4382357;32;20651;-62
2020/12/19 11:48:56;;;;;;;148.97;81.27;;;;;;;;;;4383367;32;20265;-62
2020/12/19 11:51:39;;;;;;;163.90;86.40;;;;;;;;;;4384808;32;20252;-62
2020/12/19 11:54:05;;;;;;;155.73;79.07;;;;;;;;;;4378013;32;20221;-61
2020/12/19 11:56:31;;;;;;;220.93;121.57;;;;;;;;;;4374621;32;20248;-61
2020/12/19 11:58:56;;;;;;;169.63;92.17;;;;;;;;;;4376932;32;20310;-60
2020/12/19 12:01:26;;;;;;;157.33;84.73;;;;;;;;;;4373689;32;20249;-61
2020/12/19 12:03:52;;;;;;;159.07;82.10;;;;;;;;;;4376390;32;20283;-61
2020/12/19 12:06:24;;;;;;;147.43;80.50;;;;;;;;;;4380713;32;20265;-61
2020/12/19 12:08:50;;;;;;;164.87;88.00;;;;;;;;;;4380671;32;20206;-62
2020/12/19 12:11:23;;;;;;;192.17;103.83;;;;;;;;;;4374572;32;20284;-62
2020/12/19 12:13:49;;;;;;;196.67;99.47;;;;;;;;;;4373998;32;20484;-62
2020/12/19 12:16:14;;;;;;;190.53;103.33;;;;;;;;;;4383406;32;20300;-61
2020/12/19 12:18:39;;;;;;;206.17;115.13;;;;;;;;;;4385919;32;20245;-61
2020/12/19 12:21:05;;;;;;;202.53;118.20;;;;;;;;;;4378745;32;20654;-61
2020/12/19 12:23:30;;;;;;;206.97;115.13;;;;;;;;;;4380817;32;20320;-61
2020/12/19 12:25:56;;;;;;;211.17;113.90;;;;;;;;;;4379727;32;20233;-62
2020/12/19 12:28:21;;;;;;;212.30;116.00;;;;;;;;;;4373574;32;21411;-62
2020/12/19 12:30:47;;;;;;;199.20;109.33;;;;;;;;;;4375775;32;20325;-59
2020/12/19 12:33:12;;;;;;;202.63;114.13;;;;;;;;;;4382381;32;20411;-61
2020/12/19 12:35:38;;;;;;;218.70;118.60;;;;;;;;;;4376449;32;20348;-60
2020/12/19 12:38:05;;;;;;;216.07;115.63;;;;;;;;;;4380518;32;20698;-58
2020/12/19 12:40:30;;;;;;;215.77;117.70;;;;;;;;;;4376542;32;20648;-60
2020/12/19 12:42:57;;;;;;;117.30;63.13;;;;;;;;;;4373859;32;20217;-59
2020/12/19 12:45:22;;;;;;;247.70;122.73;;;;;;;;;;4385453;32;20273;-61
2020/12/19 12:47:48;;;;;;;266.40;154.17;;;;;;;;;;4373866;32;20312;-60
2020/12/19 12:50:13;;;;;;;232.53;129.53;;;;;;;;;;4373978;32;20240;-61
2020/12/19 12:52:39;;;;;;;237.70;120.90;;;;;;;;;;4372156;32;20285;-60
2020/12/19 12:55:05;;;;;;;225.97;122.63;;;;;;;;;;4371555;32;20230;-60
2020/12/19 12:57:30;;;;;;;234.00;127.50;;;;;;;;;;4371527;32;20342;-60
2020/12/19 12:59:56;;;;;;;268.60;142.27;;;;;;;;;;4371098;32;20225;-60
2020/12/19 13:02:21;;;;;;;229.20;122.27;;;;;;;;;;4385648;32;20279;-62
2020/12/19 13:04:47;;;;;;;225.97;117.83;;;;;;;;;;4386569;32;20230;-62
2020/12/19 13:07:13;;;;;;;219.83;116.20;;;;;;;;;;4385769;32;20675;-61
2020/12/19 13:09:38;;;;;;;228.90;122.50;;;;;;;;;;4386174;32;20244;-61
2020/12/19 13:12:04;;;;;;;213.60;115.50;;;;;;;;;;4386764;32;20218;-61
2020/12/19 13:14:29;;;;;;;223.57;120.80;;;;;;;;;;4387566;32;20214;-61
2020/12/19 13:16:55;;;;;;;232.07;119.80;;;;;;;;;;4388351;32;20202;-61
2020/12/19 13:19:20;;;;;;;236.13;121.90;;;;;;;;;;4376447;32;20285;-61
2020/12/19 13:21:46;;;;;;;229.77;119.23;;;;;;;;;;4382751;32;20210;-61
2020/12/19 13:24:13;;;;;;;230.77;116.10;;;;;;;;;;4388388;32;20285;-60
2020/12/19 13:26:44;;;;;;;222.03;114.40;;;;;;;;;;4388258;32;20662;-62
2020/12/19 13:29:09;;;;;;;225.50;116.90;;;;;;;;;;4374520;32;20242;-60
2020/12/19 13:31:35;;;;;;;226.13;120.93;;;;;;;;;;4386392;32;20629;-60
2020/12/19 13:34:00;;;;;;;394.33;184.03;;;;;;;;;;4379740;32;20273;-60
2020/12/19 13:36:26;;;;;;;263.17;132.10;;;;;;;;;;4383987;32;20290;-60
2020/12/19 13:38:51;;;;;;;248.70;131.00;;;;;;;;;;4387635;32;20276;-60
2020/12/19 13:41:18;;;;;;;265.60;134.20;;;;;;;;;;4386911;32;20308;-60
2020/12/19 13:43:44;;;;;;;254.03;127.70;;;;;;;;;;4388206;32;20210;-60
2020/12/19 13:46:12;;;;;;;246.37;124.90;;;;;;;;;;4387187;32;20229;-60
2020/12/19 13:48:40;;;;;;;239.90;124.07;;;;;;;;;;4387977;32;20307;-61
2020/12/19 13:51:05;;;;;;;247.47;129.53;;;;;;;;;;4372750;32;20226;-60
2020/12/19 13:53:31;;;;;;;273.93;136.67;;;;;;;;;;4383080;32;20368;-60
2020/12/19 13:55:56;;;;;;;266.37;132.80;;;;;;;;;;4388248;32;20334;-60
2020/12/19 13:58:22;;;;;;;264.60;129.77;;;;;;;;;;4388350;32;20353;-60
2020/12/19 14:00:47;;;;;;;258.03;126.73;;;;;;;;;;4387702;32;20225;-60
2020/12/19 14:03:13;;;;;;;251.20;128.23;;;;;;;;;;4387411;32;20222;-60